Ust' Kalmanka, Russia
Current Conditions -  °F | °C
As of 1:00 AM on Sunday 26 Oct 2014 (Local Time) from UNBB Reporting Station
Broken Clouds Broken Clouds  
Wind Chill: -11°   Ceiling: 2600
Heat Index: -4°   Visibility: 6mi
Dew Point: -9°   Wind: 13mph
Humidity: 69%   Direction: 260°W
Pressure: 30.03"   Gusts: NA
Location:  52.12°N, 83.32°E
Report Text: UNBB 251800Z 26006MPS 9999 BKN026 M04/M09 Q1017 NOSIG RMKQFE740/0987 24CLRD66
Loading
Personal Weather Stations






























Interactive Weather Map
Tropical Storm Tracking
New forecast layout! Learn more

10-Day Weather Forecast

Advertisements
Track Severe Weather on mobile